sensor_id;sensor_type;location;lat;lon;timestamp;temperature;humidity
76878;DHT22;65843;50.692;12.844;2023-02-28T00:00:53;19.50;59.10
76878;DHT22;65843;50.692;12.844;2023-02-28T00:01:54;19.50;59.20
76878;DHT22;65843;50.692;12.844;2023-02-28T00:02:54;19.50;59.40
76878;DHT22;65843;50.692;12.844;2023-02-28T00:03:55;19.50;59.50
76878;DHT22;65843;50.692;12.844;2023-02-28T00:04:56;19.50;59.20
76878;DHT22;65843;50.692;12.844;2023-02-28T00:06:05;19.50;59.40
76878;DHT22;65843;50.692;12.844;2023-02-28T00:07:06;19.50;59.40
76878;DHT22;65843;50.692;12.844;2023-02-28T00:08:07;19.50;59.10
76878;DHT22;65843;50.692;12.844;2023-02-28T00:09:08;19.50;59.40
76878;DHT22;65843;50.692;12.844;2023-02-28T00:10:09;19.50;59.60
76878;DHT22;65843;50.692;12.844;2023-02-28T00:11:11;19.50;59.40
76878;DHT22;65843;50.692;12.844;2023-02-28T00:12:12;19.50;59.70
76878;DHT22;65843;50.692;12.844;2023-02-28T00:13:13;19.50;59.50
76878;DHT22;65843;50.692;12.844;2023-02-28T00:14:14;19.50;59.60
76878;DHT22;65843;50.692;12.844;2023-02-28T00:15:15;19.50;59.70
76878;DHT22;65843;50.692;12.844;2023-02-28T00:16:20;19.50;59.60
76878;DHT22;65843;50.692;12.844;2023-02-28T00:17:21;19.50;59.60
76878;DHT22;65843;50.692;12.844;2023-02-28T00:18:22;19.50;59.60
76878;DHT22;65843;50.692;12.844;2023-02-28T00:19:23;19.50;59.80
76878;DHT22;65843;50.692;12.844;2023-02-28T00:20:24;19.50;59.60
76878;DHT22;65843;50.692;12.844;2023-02-28T00:21:25;19.50;60.10
76878;DHT22;65843;50.692;12.844;2023-02-28T00:22:26;19.50;60.10
76878;DHT22;65843;50.692;12.844;2023-02-28T00:23:26;19.50;59.80
76878;DHT22;65843;50.692;12.844;2023-02-28T00:24:27;19.50;59.80
76878;DHT22;65843;50.692;12.844;2023-02-28T00:25:28;19.50;60.10
76878;DHT22;65843;50.692;12.844;2023-02-28T00:26:29;19.60;60.70
76878;DHT22;65843;50.692;12.844;2023-02-28T00:27:30;19.60;60.70
76878;DHT22;65843;50.692;12.844;2023-02-28T00:28:31;19.60;60.00
76878;DHT22;65843;50.692;12.844;2023-02-28T00:29:32;19.60;60.50
76878;DHT22;65843;50.692;12.844;2023-02-28T00:30:33;19.60;60.20
76878;DHT22;65843;50.692;12.844;2023-02-28T00:31:34;19.70;60.30
76878;DHT22;65843;50.692;12.844;2023-02-28T00:32:35;19.70;60.10
76878;DHT22;65843;50.692;12.844;2023-02-28T00:33:35;19.70;60.10
76878;DHT22;65843;50.692;12.844;2023-02-28T00:34:36;19.70;60.20
76878;DHT22;65843;50.692;12.844;2023-02-28T00:35:38;19.70;60.00
76878;DHT22;65843;50.692;12.844;2023-02-28T00:36:39;19.70;60.10
76878;DHT22;65843;50.692;12.844;2023-02-28T00:37:41;19.70;60.00
76878;DHT22;65843;50.692;12.844;2023-02-28T00:38:42;19.70;60.20
76878;DHT22;65843;50.692;12.844;2023-02-28T00:39:43;19.70;60.20
76878;DHT22;65843;50.692;12.844;2023-02-28T00:40:44;19.70;60.10
76878;DHT22;65843;50.692;12.844;2023-02-28T00:41:45;19.70;60.00
76878;DHT22;65843;50.692;12.844;2023-02-28T00:42:46;19.70;60.00
76878;DHT22;65843;50.692;12.844;2023-02-28T00:43:47;19.70;60.20
76878;DHT22;65843;50.692;12.844;2023-02-28T00:44:48;19.70;60.00
76878;DHT22;65843;50.692;12.844;2023-02-28T00:45:49;19.70;60.10
76878;DHT22;65843;50.692;12.844;2023-02-28T00:46:50;19.60;60.20
76878;DHT22;65843;50.692;12.844;2023-02-28T00:47:52;19.60;60.10
76878;DHT22;65843;50.692;12.844;2023-02-28T00:48:53;19.60;60.10
76878;DHT22;65843;50.692;12.844;2023-02-28T00:49:53;19.60;60.20
76878;DHT22;65843;50.692;12.844;2023-02-28T00:50:54;19.60;60.20
76878;DHT22;65843;50.692;12.844;2023-02-28T00:51:55;19.60;60.30
76878;DHT22;65843;50.692;12.844;2023-02-28T00:52:56;19.60;60.10
76878;DHT22;65843;50.692;12.844;2023-02-28T00:53:57;19.60;60.20
76878;DHT22;65843;50.692;12.844;2023-02-28T00:54:58;19.60;60.10
76878;DHT22;65843;50.692;12.844;2023-02-28T00:55:59;19.60;60.20
76878;DHT22;65843;50.692;12.844;2023-02-28T00:57:00;19.60;60.10
76878;DHT22;65843;50.692;12.844;2023-02-28T00:58:01;19.60;60.30
76878;DHT22;65843;50.692;12.844;2023-02-28T00:59:02;19.60;60.20
76878;DHT22;65843;50.692;12.844;2023-02-28T01:00:03;19.60;60.10
76878;DHT22;65843;50.692;12.844;2023-02-28T01:01:04;19.60;60.20
76878;DHT22;65843;50.692;12.844;2023-02-28T01:02:05;19.70;60.10
76878;DHT22;65843;50.692;12.844;2023-02-28T01:03:06;19.60;60.10
76878;DHT22;65843;50.692;12.844;2023-02-28T01:04:07;19.60;60.10
76878;DHT22;65843;50.692;12.844;2023-02-28T01:05:08;19.60;60.00
76878;DHT22;65843;50.692;12.844;2023-02-28T01:06:09;19.60;60.10
76878;DHT22;65843;50.692;12.844;2023-02-28T01:07:09;19.60;60.10
76878;DHT22;65843;50.692;12.844;2023-02-28T01:08:10;19.60;60.10
76878;DHT22;65843;50.692;12.844;2023-02-28T01:09:11;19.70;60.20
76878;DHT22;65843;50.692;12.844;2023-02-28T01:10:12;19.60;60.20
76878;DHT22;65843;50.692;12.844;2023-02-28T01:11:14;19.60;60.30
76878;DHT22;65843;50.692;12.844;2023-02-28T01:12:15;19.70;60.20
76878;DHT22;65843;50.692;12.844;2023-02-28T01:13:16;19.70;60.10
76878;DHT22;65843;50.692;12.844;2023-02-28T01:14:17;19.70;60.20
76878;DHT22;65843;50.692;12.844;2023-02-28T01:15:18;19.70;60.00
76878;DHT22;65843;50.692;12.844;2023-02-28T01:16:19;19.70;60.20
76878;DHT22;65843;50.692;12.844;2023-02-28T01:17:20;19.70;60.00
76878;DHT22;65843;50.692;12.844;2023-02-28T01:18:21;19.70;59.70
76878;DHT22;65843;50.692;12.844;2023-02-28T01:19:22;19.70;59.90
76878;DHT22;65843;50.692;12.844;2023-02-28T01:20:23;19.60;60.20
76878;DHT22;65843;50.692;12.844;2023-02-28T01:21:24;19.70;60.30
76878;DHT22;65843;50.692;12.844;2023-02-28T01:22:25;19.70;60.50
76878;DHT22;65843;50.692;12.844;2023-02-28T01:23:26;19.70;60.30
76878;DHT22;65843;50.692;12.844;2023-02-28T01:24:27;19.70;60.20
76878;DHT22;65843;50.692;12.844;2023-02-28T01:25:27;19.70;60.20
76878;DHT22;65843;50.692;12.844;2023-02-28T01:26:29;19.70;60.20
76878;DHT22;65843;50.692;12.844;2023-02-28T01:27:30;19.60;60.30
76878;DHT22;65843;50.692;12.844;2023-02-28T01:28:31;19.60;60.20
76878;DHT22;65843;50.692;12.844;2023-02-28T01:29:31;19.60;60.30
76878;DHT22;65843;50.692;12.844;2023-02-28T01:30:32;19.60;60.30
76878;DHT22;65843;50.692;12.844;2023-02-28T01:31:33;19.60;60.10
76878;DHT22;65843;50.692;12.844;2023-02-28T01:32:35;19.60;60.10
76878;DHT22;65843;50.692;12.844;2023-02-28T01:33:36;19.60;60.30
76878;DHT22;65843;50.692;12.844;2023-02-28T01:34:37;19.50;60.20
76878;DHT22;65843;50.692;12.844;2023-02-28T01:35:38;19.60;60.30
76878;DHT22;65843;50.692;12.844;2023-02-28T01:36:39;19.60;60.40
76878;DHT22;65843;50.692;12.844;2023-02-28T01:37:40;19.50;60.30
76878;DHT22;65843;50.692;12.844;2023-02-28T01:38:41;19.60;60.40
76878;DHT22;65843;50.692;12.844;2023-02-28T01:39:42;19.50;60.30
76878;DHT22;65843;50.692;12.844;2023-02-28T01:40:43;19.50;60.30
76878;DHT22;65843;50.692;12.844;2023-02-28T01:41:43;19.50;60.20
76878;DHT22;65843;50.692;12.844;2023-02-28T01:42:44;19.50;60.30
76878;DHT22;65843;50.692;12.844;2023-02-28T01:46:05;19.50;60.40
76878;DHT22;65843;50.692;12.844;2023-02-28T01:47:06;19.50;60.50
76878;DHT22;65843;50.692;12.844;2023-02-28T01:48:07;19.50;60.50
76878;DHT22;65843;50.692;12.844;2023-02-28T01:49:11;19.50;60.70
76878;DHT22;65843;50.692;12.844;2023-02-28T01:50:14;19.50;60.70
76878;DHT22;65843;50.692;12.844;2023-02-28T01:51:18;19.50;60.60
76878;DHT22;65843;50.692;12.844;2023-02-28T01:52:21;19.50;60.70
76878;DHT22;65843;50.692;12.844;2023-02-28T01:53:24;19.50;60.60
76878;DHT22;65843;50.692;12.844;2023-02-28T01:54:28;19.50;60.60
76878;DHT22;65843;50.692;12.844;2023-02-28T01:55:29;19.50;60.60
76878;DHT22;65843;50.692;12.844;2023-02-28T01:56:32;19.50;60.60
76878;DHT22;65843;50.692;12.844;2023-02-28T01:57:35;19.50;60.70
76878;DHT22;65843;50.692;12.844;2023-02-28T01:58:38;19.50;60.70
76878;DHT22;65843;50.692;12.844;2023-02-28T01:59:44;19.50;60.70
76878;DHT22;65843;50.692;12.844;2023-02-28T02:00:51;19.50;60.90
76878;DHT22;65843;50.692;12.844;2023-02-28T02:01:52;19.50;60.80
76878;DHT22;65843;50.692;12.844;2023-02-28T02:02:55;19.50;60.70
76878;DHT22;65843;50.692;12.844;2023-02-28T02:03:57;19.60;60.50
76878;DHT22;65843;50.692;12.844;2023-02-28T02:06:05;19.60;60.80
76878;DHT22;65843;50.692;12.844;2023-02-28T02:07:06;19.60;60.60
76878;DHT22;65843;50.692;12.844;2023-02-28T02:08:11;19.70;60.50
76878;DHT22;65843;50.692;12.844;2023-02-28T02:09:13;19.60;60.50
76878;DHT22;65843;50.692;12.844;2023-02-28T02:10:31;19.70;60.60
76878;DHT22;65843;50.692;12.844;2023-02-28T02:11:33;19.70;60.60
76878;DHT22;65843;50.692;12.844;2023-02-28T02:15:53;19.70;60.50
76878;DHT22;65843;50.692;12.844;2023-02-28T02:17:01;19.70;60.50
76878;DHT22;65843;50.692;12.844;2023-02-28T02:36:28;19.70;60.20
76878;DHT22;65843;50.692;12.844;2023-02-28T02:37:36;19.70;60.40
76878;DHT22;65843;50.692;12.844;2023-02-28T02:39:53;19.60;60.30
76878;DHT22;65843;50.692;12.844;2023-02-28T02:41:04;19.70;60.50
76878;DHT22;65843;50.692;12.844;2023-02-28T02:42:11;19.70;60.50
76878;DHT22;65843;50.692;12.844;2023-02-28T02:43:22;19.70;60.50
76878;DHT22;65843;50.692;12.844;2023-02-28T02:44:27;19.70;60.50
76878;DHT22;65843;50.692;12.844;2023-02-28T02:45:38;19.60;60.50
76878;DHT22;65843;50.692;12.844;2023-02-28T02:46:41;19.70;60.50
76878;DHT22;65843;50.692;12.844;2023-02-28T02:47:44;19.70;60.50
76878;DHT22;65843;50.692;12.844;2023-02-28T02:48:45;19.60;60.50
76878;DHT22;65843;50.692;12.844;2023-02-28T02:49:51;19.60;60.50
76878;DHT22;65843;50.692;12.844;2023-02-28T02:50:56;19.60;60.60
76878;DHT22;65843;50.692;12.844;2023-02-28T02:52:01;19.60;60.50
76878;DHT22;65843;50.692;12.844;2023-02-28T02:53:02;19.60;60.60
76878;DHT22;65843;50.692;12.844;2023-02-28T02:55:08;19.60;60.50
76878;DHT22;65843;50.692;12.844;2023-02-28T02:56:11;19.60;60.40
76878;DHT22;65843;50.692;12.844;2023-02-28T02:57:13;19.50;60.50
76878;DHT22;65843;50.692;12.844;2023-02-28T02:58:16;19.60;60.60
76878;DHT22;65843;50.692;12.844;2023-02-28T02:59:19;19.50;60.60
76878;DHT22;65843;50.692;12.844;2023-02-28T03:00:23;19.60;60.70
76878;DHT22;65843;50.692;12.844;2023-02-28T03:01:25;19.60;60.90
76878;DHT22;65843;50.692;12.844;2023-02-28T03:02:30;19.60;60.70
76878;DHT22;65843;50.692;12.844;2023-02-28T03:03:34;19.60;60.70
76878;DHT22;65843;50.692;12.844;2023-02-28T03:04:42;19.50;60.70
76878;DHT22;65843;50.692;12.844;2023-02-28T03:06:44;19.50;60.90
76878;DHT22;65843;50.692;12.844;2023-02-28T03:07:44;19.50;60.80
76878;DHT22;65843;50.692;12.844;2023-02-28T03:08:45;19.60;60.80
76878;DHT22;65843;50.692;12.844;2023-02-28T03:09:53;19.50;60.90
76878;DHT22;65843;50.692;12.844;2023-02-28T03:10:58;19.60;60.80
76878;DHT22;65843;50.692;12.844;2023-02-28T03:12:00;19.60;60.70
76878;DHT22;65843;50.692;12.844;2023-02-28T03:16:36;19.50;60.80
76878;DHT22;65843;50.692;12.844;2023-02-28T03:23:10;19.60;60.60
76878;DHT22;65843;50.692;12.844;2023-02-28T03:26:21;19.60;60.40
76878;DHT22;65843;50.692;12.844;2023-02-28T03:27:24;19.50;60.50
76878;DHT22;65843;50.692;12.844;2023-02-28T03:29:28;19.50;60.50
76878;DHT22;65843;50.692;12.844;2023-02-28T03:30:41;19.50;60.40
76878;DHT22;65843;50.692;12.844;2023-02-28T03:31:44;19.50;60.30
76878;DHT22;65843;50.692;12.844;2023-02-28T03:32:57;19.50;60.40
76878;DHT22;65843;50.692;12.844;2023-02-28T03:35:39;19.50;60.20
76878;DHT22;65843;50.692;12.844;2023-02-28T03:36:35;19.50;60.30
76878;DHT22;65843;50.692;12.844;2023-02-28T03:37:42;19.50;60.20
76878;DHT22;65843;50.692;12.844;2023-02-28T03:38:49;19.50;60.20
76878;DHT22;65843;50.692;12.844;2023-02-28T03:39:56;19.50;60.50
76878;DHT22;65843;50.692;12.844;2023-02-28T03:41:01;19.50;60.00
76878;DHT22;65843;50.692;12.844;2023-02-28T03:42:14;19.50;60.40
76878;DHT22;65843;50.692;12.844;2023-02-28T03:43:18;19.50;60.40
76878;DHT22;65843;50.692;12.844;2023-02-28T03:44:21;19.50;60.30
76878;DHT22;65843;50.692;12.844;2023-02-28T03:45:25;19.50;60.20
76878;DHT22;65843;50.692;12.844;2023-02-28T03:46:27;19.50;60.20
76878;DHT22;65843;50.692;12.844;2023-02-28T03:47:38;19.50;60.20
76878;DHT22;65843;50.692;12.844;2023-02-28T03:48:43;19.50;60.30
76878;DHT22;65843;50.692;12.844;2023-02-28T03:49:45;19.50;60.50
76878;DHT22;65843;50.692;12.844;2023-02-28T03:50:49;19.50;60.50
76878;DHT22;65843;50.692;12.844;2023-02-28T03:51:52;19.50;60.90
76878;DHT22;65843;50.692;12.844;2023-02-28T03:52:59;19.50;60.90
76878;DHT22;65843;50.692;12.844;2023-02-28T03:54:09;19.50;60.90
76878;DHT22;65843;50.692;12.844;2023-02-28T03:55:13;19.50;61.20
76878;DHT22;65843;50.692;12.844;2023-02-28T03:58:30;19.50;61.30
76878;DHT22;65843;50.692;12.844;2023-02-28T04:00:06;19.50;61.10
76878;DHT22;65843;50.692;12.844;2023-02-28T04:01:01;19.50;60.80
76878;DHT22;65843;50.692;12.844;2023-02-28T04:02:08;19.50;60.70
76878;DHT22;65843;50.692;12.844;2023-02-28T04:03:09;19.50;60.70
76878;DHT22;65843;50.692;12.844;2023-02-28T04:04:10;19.50;60.90
76878;DHT22;65843;50.692;12.844;2023-02-28T04:05:12;19.50;61.00
76878;DHT22;65843;50.692;12.844;2023-02-28T04:06:14;19.50;60.90
76878;DHT22;65843;50.692;12.844;2023-02-28T04:07:17;19.50;61.00
76878;DHT22;65843;50.692;12.844;2023-02-28T04:08:18;19.50;60.90
76878;DHT22;65843;50.692;12.844;2023-02-28T04:09:18;19.50;60.50
76878;DHT22;65843;50.692;12.844;2023-02-28T04:10:19;19.50;60.30
76878;DHT22;65843;50.692;12.844;2023-02-28T04:11:22;19.50;60.50
76878;DHT22;65843;50.692;12.844;2023-02-28T04:12:23;19.50;60.60
76878;DHT22;65843;50.692;12.844;2023-02-28T04:13:24;19.50;60.50
76878;DHT22;65843;50.692;12.844;2023-02-28T04:14:25;19.50;60.20
76878;DHT22;65843;50.692;12.844;2023-02-28T04:15:26;19.50;60.70
76878;DHT22;65843;50.692;12.844;2023-02-28T04:16:28;19.50;60.60
76878;DHT22;65843;50.692;12.844;2023-02-28T04:17:29;19.50;60.60
76878;DHT22;65843;50.692;12.844;2023-02-28T04:18:29;19.50;60.70
76878;DHT22;65843;50.692;12.844;2023-02-28T04:19:30;19.50;60.70
76878;DHT22;65843;50.692;12.844;2023-02-28T04:20:31;19.50;60.80
76878;DHT22;65843;50.692;12.844;2023-02-28T04:21:33;19.50;60.80
76878;DHT22;65843;50.692;12.844;2023-02-28T04:22:34;19.50;60.60
76878;DHT22;65843;50.692;12.844;2023-02-28T04:23:35;19.50;60.70
76878;DHT22;65843;50.692;12.844;2023-02-28T04:24:36;19.50;60.70
76878;DHT22;65843;50.692;12.844;2023-02-28T04:25:37;19.50;61.40
76878;DHT22;65843;50.692;12.844;2023-02-28T04:26:42;19.50;61.20
76878;DHT22;65843;50.692;12.844;2023-02-28T04:27:44;19.50;61.30
76878;DHT22;65843;50.692;12.844;2023-02-28T04:28:45;19.50;61.20
76878;DHT22;65843;50.692;12.844;2023-02-28T04:29:46;19.50;61.10
76878;DHT22;65843;50.692;12.844;2023-02-28T04:30:46;19.50;61.20
76878;DHT22;65843;50.692;12.844;2023-02-28T04:31:47;19.50;61.20
76878;DHT22;65843;50.692;12.844;2023-02-28T04:32:48;19.50;61.40
76878;DHT22;65843;50.692;12.844;2023-02-28T04:33:49;19.50;61.30
76878;DHT22;65843;50.692;12.844;2023-02-28T04:34:50;19.50;61.20
76878;DHT22;65843;50.692;12.844;2023-02-28T04:37:01;19.50;61.60
76878;DHT22;65843;50.692;12.844;2023-02-28T04:38:02;19.50;61.40
76878;DHT22;65843;50.692;12.844;2023-02-28T04:39:02;19.50;61.40
76878;DHT22;65843;50.692;12.844;2023-02-28T04:40:04;19.50;61.30
76878;DHT22;65843;50.692;12.844;2023-02-28T04:41:05;19.50;61.20
76878;DHT22;65843;50.692;12.844;2023-02-28T04:42:06;19.50;61.00
76878;DHT22;65843;50.692;12.844;2023-02-28T04:43:07;19.50;60.90
76878;DHT22;65843;50.692;12.844;2023-02-28T04:44:08;19.50;61.00
76878;DHT22;65843;50.692;12.844;2023-02-28T04:45:09;19.50;60.90
76878;DHT22;65843;50.692;12.844;2023-02-28T04:46:10;19.50;60.90
76878;DHT22;65843;50.692;12.844;2023-02-28T04:47:12;19.50;60.80
76878;DHT22;65843;50.692;12.844;2023-02-28T04:48:13;19.50;60.80
76878;DHT22;65843;50.692;12.844;2023-02-28T04:49:14;19.50;60.70
76878;DHT22;65843;50.692;12.844;2023-02-28T04:50:15;19.50;61.00
76878;DHT22;65843;50.692;12.844;2023-02-28T04:51:17;19.50;60.80
76878;DHT22;65843;50.692;12.844;2023-02-28T04:52:18;19.50;60.90
76878;DHT22;65843;50.692;12.844;2023-02-28T04:53:19;19.50;60.70
76878;DHT22;65843;50.692;12.844;2023-02-28T04:54:20;19.50;61.10
76878;DHT22;65843;50.692;12.844;2023-02-28T04:55:21;19.50;61.20
76878;DHT22;65843;50.692;12.844;2023-02-28T04:56:22;19.50;61.10
76878;DHT22;65843;50.692;12.844;2023-02-28T04:57:23;19.50;61.10
76878;DHT22;65843;50.692;12.844;2023-02-28T04:58:24;19.50;61.20
76878;DHT22;65843;50.692;12.844;2023-02-28T04:59:25;19.50;61.10
76878;DHT22;65843;50.692;12.844;2023-02-28T05:00:26;19.50;61.00
76878;DHT22;65843;50.692;12.844;2023-02-28T05:01:28;19.50;61.10
76878;DHT22;65843;50.692;12.844;2023-02-28T05:02:29;19.50;61.30
76878;DHT22;65843;50.692;12.844;2023-02-28T05:03:30;19.50;61.20
76878;DHT22;65843;50.692;12.844;2023-02-28T05:04:31;19.40;61.50
76878;DHT22;65843;50.692;12.844;2023-02-28T05:05:34;19.50;61.60
76878;DHT22;65843;50.692;12.844;2023-02-28T05:06:35;19.50;61.50
76878;DHT22;65843;50.692;12.844;2023-02-28T05:07:36;19.50;61.70
76878;DHT22;65843;50.692;12.844;2023-02-28T05:08:37;19.50;61.90
76878;DHT22;65843;50.692;12.844;2023-02-28T05:09:38;19.50;61.70
76878;DHT22;65843;50.692;12.844;2023-02-28T05:10:39;19.50;61.70
76878;DHT22;65843;50.692;12.844;2023-02-28T05:11:39;19.50;61.50
76878;DHT22;65843;50.692;12.844;2023-02-28T05:12:40;19.50;61.10
76878;DHT22;65843;50.692;12.844;2023-02-28T05:13:41;19.50;60.70
76878;DHT22;65843;50.692;12.844;2023-02-28T05:14:42;19.50;60.80
76878;DHT22;65843;50.692;12.844;2023-02-28T05:15:44;19.50;60.60
76878;DHT22;65843;50.692;12.844;2023-02-28T05:16:45;19.50;60.60
76878;DHT22;65843;50.692;12.844;2023-02-28T05:17:46;19.50;60.60
76878;DHT22;65843;50.692;12.844;2023-02-28T05:18:47;19.50;60.70
76878;DHT22;65843;50.692;12.844;2023-02-28T05:19:48;19.50;60.70
76878;DHT22;65843;50.692;12.844;2023-02-28T05:20:49;19.50;60.80
76878;DHT22;65843;50.692;12.844;2023-02-28T05:21:50;19.40;60.80
76878;DHT22;65843;50.692;12.844;2023-02-28T05:22:52;19.40;60.70
76878;DHT22;65843;50.692;12.844;2023-02-28T05:23:53;19.40;60.50
76878;DHT22;65843;50.692;12.844;2023-02-28T05:24:54;19.40;60.70
76878;DHT22;65843;50.692;12.844;2023-02-28T05:25:55;19.40;60.50
76878;DHT22;65843;50.692;12.844;2023-02-28T05:26:56;19.40;60.50
76878;DHT22;65843;50.692;12.844;2023-02-28T05:27:57;19.40;60.90
76878;DHT22;65843;50.692;12.844;2023-02-28T05:28:58;19.40;60.80
76878;DHT22;65843;50.692;12.844;2023-02-28T05:29:59;19.40;60.70
76878;DHT22;65843;50.692;12.844;2023-02-28T05:31:00;19.40;61.00
76878;DHT22;65843;50.692;12.844;2023-02-28T05:32:01;19.40;61.00
76878;DHT22;65843;50.692;12.844;2023-02-28T05:33:02;19.40;61.00
76878;DHT22;65843;50.692;12.844;2023-02-28T05:34:03;19.40;60.80
76878;DHT22;65843;50.692;12.844;2023-02-28T05:35:07;19.40;60.90
76878;DHT22;65843;50.692;12.844;2023-02-28T05:36:08;19.40;61.00
76878;DHT22;65843;50.692;12.844;2023-02-28T05:37:10;19.40;60.80
76878;DHT22;65843;50.692;12.844;2023-02-28T05:38:12;19.40;60.80
76878;DHT22;65843;50.692;12.844;2023-02-28T05:39:12;19.40;60.90
76878;DHT22;65843;50.692;12.844;2023-02-28T05:40:13;19.40;58.30
76878;DHT22;65843;50.692;12.844;2023-02-28T05:41:15;19.40;57.60
76878;DHT22;65843;50.692;12.844;2023-02-28T05:42:16;19.40;57.90
76878;DHT22;65843;50.692;12.844;2023-02-28T05:43:17;19.40;57.70
76878;DHT22;65843;50.692;12.844;2023-02-28T05:44:18;19.40;57.40
76878;DHT22;65843;50.692;12.844;2023-02-28T05:45:19;19.40;57.00
76878;DHT22;65843;50.692;12.844;2023-02-28T05:46:20;19.30;56.00
76878;DHT22;65843;50.692;12.844;2023-02-28T05:47:20;19.30;55.50
76878;DHT22;65843;50.692;12.844;2023-02-28T05:48:21;19.30;55.20
76878;DHT22;65843;50.692;12.844;2023-02-28T05:49:22;19.30;56.20
76878;DHT22;65843;50.692;12.844;2023-02-28T05:50:23;19.20;56.40
76878;DHT22;65843;50.692;12.844;2023-02-28T05:51:24;19.20;56.40
76878;DHT22;65843;50.692;12.844;2023-02-28T05:52:25;19.20;55.90
76878;DHT22;65843;50.692;12.844;2023-02-28T05:53:26;19.20;56.00
76878;DHT22;65843;50.692;12.844;2023-02-28T05:54:27;19.20;56.00
76878;DHT22;65843;50.692;12.844;2023-02-28T05:55:28;19.20;55.90
76878;DHT22;65843;50.692;12.844;2023-02-28T05:56:29;19.10;56.10
76878;DHT22;65843;50.692;12.844;2023-02-28T05:57:30;19.10;55.70
76878;DHT22;65843;50.692;12.844;2023-02-28T05:58:31;19.10;54.40
76878;DHT22;65843;50.692;12.844;2023-02-28T05:59:32;19.10;53.80
76878;DHT22;65843;50.692;12.844;2023-02-28T06:00:32;19.10;55.40
76878;DHT22;65843;50.692;12.844;2023-02-28T06:01:35;19.10;54.90
76878;DHT22;65843;50.692;12.844;2023-02-28T06:02:36;19.10;54.40
76878;DHT22;65843;50.692;12.844;2023-02-28T06:03:37;19.10;53.50
76878;DHT22;65843;50.692;12.844;2023-02-28T06:04:37;19.10;53.40
76878;DHT22;65843;50.692;12.844;2023-02-28T06:05:38;19.10;53.40
76878;DHT22;65843;50.692;12.844;2023-02-28T06:06:39;19.10;53.60
76878;DHT22;65843;50.692;12.844;2023-02-28T06:07:40;19.10;53.40
76878;DHT22;65843;50.692;12.844;2023-02-28T06:08:41;19.10;53.50
76878;DHT22;65843;50.692;12.844;2023-02-28T06:09:43;19.10;52.40
76878;DHT22;65843;50.692;12.844;2023-02-28T06:10:44;19.10;52.40
76878;DHT22;65843;50.692;12.844;2023-02-28T06:11:46;19.10;51.50
76878;DHT22;65843;50.692;12.844;2023-02-28T06:12:46;19.20;52.40
76878;DHT22;65843;50.692;12.844;2023-02-28T06:13:47;19.20;53.00
76878;DHT22;65843;50.692;12.844;2023-02-28T06:14:49;19.20;52.90
76878;DHT22;65843;50.692;12.844;2023-02-28T06:15:49;19.20;52.60
76878;DHT22;65843;50.692;12.844;2023-02-28T06:16:50;19.20;51.50
76878;DHT22;65843;50.692;12.844;2023-02-28T06:17:51;19.20;51.40
76878;DHT22;65843;50.692;12.844;2023-02-28T06:18:53;19.20;52.20
76878;DHT22;65843;50.692;12.844;2023-02-28T06:19:56;19.20;52.20
76878;DHT22;65843;50.692;12.844;2023-02-28T06:20:57;19.20;51.70
76878;DHT22;65843;50.692;12.844;2023-02-28T06:21:58;19.20;51.20
76878;DHT22;65843;50.692;12.844;2023-02-28T06:23:00;19.20;51.20
76878;DHT22;65843;50.692;12.844;2023-02-28T06:24:01;19.20;51.70
76878;DHT22;65843;50.692;12.844;2023-02-28T06:25:02;19.10;51.90
76878;DHT22;65843;50.692;12.844;2023-02-28T06:26:03;19.10;51.90
76878;DHT22;65843;50.692;12.844;2023-02-28T06:27:04;19.10;52.30
76878;DHT22;65843;50.692;12.844;2023-02-28T06:28:05;19.10;52.60
76878;DHT22;65843;50.692;12.844;2023-02-28T06:29:06;19.10;52.50
76878;DHT22;65843;50.692;12.844;2023-02-28T06:30:08;19.00;52.30
76878;DHT22;65843;50.692;12.844;2023-02-28T06:31:10;19.00;52.50
76878;DHT22;65843;50.692;12.844;2023-02-28T06:32:11;19.00;52.90
76878;DHT22;65843;50.692;12.844;2023-02-28T06:33:12;19.00;52.90
76878;DHT22;65843;50.692;12.844;2023-02-28T06:34:13;19.00;53.00
76878;DHT22;65843;50.692;12.844;2023-02-28T06:35:14;18.90;53.10
76878;DHT22;65843;50.692;12.844;2023-02-28T06:36:15;18.90;53.20
76878;DHT22;65843;50.692;12.844;2023-02-28T06:37:17;18.90;53.30
76878;DHT22;65843;50.692;12.844;2023-02-28T06:38:18;18.90;53.30
76878;DHT22;65843;50.692;12.844;2023-02-28T06:39:19;18.90;52.60
76878;DHT22;65843;50.692;12.844;2023-02-28T06:40:20;19.00;52.50
76878;DHT22;65843;50.692;12.844;2023-02-28T06:41:24;19.00;52.60
76878;DHT22;65843;50.692;12.844;2023-02-28T06:42:25;19.10;52.60
76878;DHT22;65843;50.692;12.844;2023-02-28T06:43:30;19.10;52.60
76878;DHT22;65843;50.692;12.844;2023-02-28T06:44:31;19.20;52.90
76878;DHT22;65843;50.692;12.844;2023-02-28T06:45:35;19.20;52.70
76878;DHT22;65843;50.692;12.844;2023-02-28T06:46:36;19.20;52.70
76878;DHT22;65843;50.692;12.844;2023-02-28T06:47:39;19.20;52.80
76878;DHT22;65843;50.692;12.844;2023-02-28T06:48:42;19.20;52.60
76878;DHT22;65843;50.692;12.844;2023-02-28T06:49:43;19.20;52.40
76878;DHT22;65843;50.692;12.844;2023-02-28T06:50:45;19.20;52.50
76878;DHT22;65843;50.692;12.844;2023-02-28T06:51:47;19.20;52.80
76878;DHT22;65843;50.692;12.844;2023-02-28T06:52:48;19.10;52.90
76878;DHT22;65843;50.692;12.844;2023-02-28T06:53:49;19.10;52.80
76878;DHT22;65843;50.692;12.844;2023-02-28T06:54:50;19.10;53.00
76878;DHT22;65843;50.692;12.844;2023-02-28T06:56:03;19.00;53.00
76878;DHT22;65843;50.692;12.844;2023-02-28T06:57:04;19.00;53.10
76878;DHT22;65843;50.692;12.844;2023-02-28T06:58:05;19.00;53.00
76878;DHT22;65843;50.692;12.844;2023-02-28T07:00:53;19.00;52.70
76878;DHT22;65843;50.692;12.844;2023-02-28T07:01:54;18.90;52.80
76878;DHT22;65843;50.692;12.844;2023-02-28T07:02:55;18.90;52.70
76878;DHT22;65843;50.692;12.844;2023-02-28T07:03:56;18.90;52.70
76878;DHT22;65843;50.692;12.844;2023-02-28T07:04:57;18.90;52.70
76878;DHT22;65843;50.692;12.844;2023-02-28T07:05:58;18.90;52.50
76878;DHT22;65843;50.692;12.844;2023-02-28T07:06:59;18.90;52.70
76878;DHT22;65843;50.692;12.844;2023-02-28T07:08:00;18.90;52.80
76878;DHT22;65843;50.692;12.844;2023-02-28T07:09:01;18.90;52.70
76878;DHT22;65843;50.692;12.844;2023-02-28T07:10:02;18.90;52.60
76878;DHT22;65843;50.692;12.844;2023-02-28T07:11:03;19.00;52.60
76878;DHT22;65843;50.692;12.844;2023-02-28T07:12:04;18.90;53.00
76878;DHT22;65843;50.692;12.844;2023-02-28T07:13:06;19.00;52.80